LIPE

Bologna Guglielmo Marconi Airport

Bologna, Italy
TAF LIPE 211700Z 2118/2218 VRB05KT 9999 FEW040 TEMPO 2209/2218 TSRA
Issued Valid From Valid To
Jun-21 @ 17:00 UTC
(an hour ago)
Jun-21 @ 18:00 UTC
(13 minutes ago)
Jun-22 @ 18:00 UTC
(in 24 hours)
Jun-21 @ 18:00 to Jun-22 @ 18:00
TAF LIPE 211700Z 2118/2218 VRB05KT 9999 FEW040
Wind Visibility Clouds
Variable at 5 knots 10,000+ meters
  • Few at 4,000' AGL
Temporary Jun-22 @ 09:00 to Jun-22 @ 18:00
TEMPO 2209/2218 TSRA
Conditions
  • Thunderstorm
  • Rain
TAF LIPE 211700Z 2118/2218 VRB05KT 9999 FEW040 TEMPO 2209/2218 TSRA
Issued Jun-21 @ 17:00 UTC
(an hour ago)
Valid From Jun-21 @ 18:00 UTC
(13 minutes ago)
Valid To Jun-22 @ 18:00 UTC
(in 24 hours)
Jun-21 @ 18:00 - Jun-22 @ 18:00
Wind Visibility
Variable at 5 knots 10,000+ meters
Clouds
  • Few at 4,000' AGL
Temporary Jun-22 @ 09:00 - Jun-22 @ 18:00
Conditions
  • Thunderstorm
  • Rain